Time;durP1;ratioP1;P1;durP2;ratioP2;P2;SDS_P1;SDS_P2;PMS_P1;PMS_P2;Temp;Humidity;BMP_temperature;BMP_pressure;BME280_temperature;BME280_humidity;BME280_pressure;Samples;Min_cycle;Max_cycle;Signal;HPM_P1;HPM_P2
2023/06/21 00:00:34;;;;;;;37.67;33.95;;;;;;;;;;5073327;28;20265;-55
2023/06/21 00:03:01;;;;;;;38.05;34.75;;;;;;;;;;5065250;28;20239;-53
2023/06/21 00:05:28;;;;;;;38.25;34.38;;;;;;;;;;5063297;28;20231;-54
2023/06/21 00:07:55;;;;;;;38.50;34.65;;;;;;;;;;5066126;28;20287;-56
2023/06/21 00:10:23;;;;;;;38.50;35.20;;;;;;;;;;5064839;28;20318;-55
2023/06/21 00:12:50;;;;;;;37.33;33.83;;;;;;;;;;5061037;28;20243;-54
2023/06/21 00:15:18;;;;;;;38.70;35.38;;;;;;;;;;5066570;28;20235;-54
2023/06/21 00:17:45;;;;;;;35.33;32.13;;;;;;;;;;5067169;28;20246;-54
2023/06/21 00:20:12;;;;;;;38.70;35.05;;;;;;;;;;5066179;28;20233;-53
2023/06/21 00:22:39;;;;;;;36.15;32.67;;;;;;;;;;5063296;28;20238;-53
2023/06/21 00:25:06;;;;;;;36.15;32.92;;;;;;;;;;5067017;28;20349;-54
2023/06/21 00:27:33;;;;;;;39.08;35.67;;;;;;;;;;5066295;28;20230;-54
2023/06/21 00:29:59;;;;;;;37.17;33.85;;;;;;;;;;5064994;28;20231;-54
2023/06/21 00:32:27;;;;;;;36.33;32.83;;;;;;;;;;5046319;28;20240;-54
2023/06/21 00:34:54;;;;;;;33.63;30.30;;;;;;;;;;5054621;28;20277;-54
2023/06/21 00:37:20;;;;;;;34.03;30.83;;;;;;;;;;5066486;28;20464;-54
2023/06/21 00:39:47;;;;;;;36.97;33.78;;;;;;;;;;5069527;28;20734;-55
2023/06/21 00:42:13;;;;;;;36.75;33.45;;;;;;;;;;5065182;28;20232;-54
2023/06/21 00:44:40;;;;;;;32.47;29.60;;;;;;;;;;5069883;28;20239;-53
2023/06/21 00:47:07;;;;;;;38.20;34.53;;;;;;;;;;5074055;28;20627;-54
2023/06/21 00:49:35;;;;;;;39.97;36.33;;;;;;;;;;5073895;28;20295;-54
2023/06/21 00:52:02;;;;;;;37.17;33.75;;;;;;;;;;5067205;28;20235;-53
2023/06/21 00:54:30;;;;;;;37.30;33.80;;;;;;;;;;5069192;28;20310;-54
2023/06/21 00:56:57;;;;;;;36.55;33.30;;;;;;;;;;5074430;28;20262;-54
2023/06/21 00:59:27;;;;;;;36.83;33.42;;;;;;;;;;5069104;28;20314;-54
2023/06/21 01:01:55;;;;;;;33.85;30.80;;;;;;;;;;5078272;28;20554;-55
2023/06/21 01:04:21;;;;;;;35.35;32.10;;;;;;;;;;5072666;28;20260;-55
2023/06/21 01:06:52;;;;;;;33.72;30.58;;;;;;;;;;5075630;28;20223;-55
2023/06/21 01:09:23;;;;;;;30.80;28.00;;;;;;;;;;5076180;28;20235;-56
2023/06/21 01:11:52;;;;;;;29.75;26.90;;;;;;;;;;5073186;28;20239;-54
2023/06/21 01:14:24;;;;;;;30.65;27.88;;;;;;;;;;5071715;28;20235;-54
2023/06/21 01:16:52;;;;;;;33.80;30.73;;;;;;;;;;5070446;28;20227;-56
2023/06/21 01:19:28;;;;;;;33.38;30.38;;;;;;;;;;5068992;28;20296;-54
2023/06/21 01:21:58;;;;;;;30.70;28.10;;;;;;;;;;5079564;28;20226;-54
2023/06/21 01:24:32;;;;;;;31.20;28.50;;;;;;;;;;5063768;28;20732;-55
2023/06/21 01:27:06;;;;;;;31.08;28.35;;;;;;;;;;5072866;28;20609;-55
2023/06/21 01:29:35;;;;;;;31.27;28.42;;;;;;;;;;5072696;28;20282;-53
2023/06/21 01:32:02;;;;;;;28.23;25.80;;;;;;;;;;5073796;28;20230;-55
2023/06/21 01:34:30;;;;;;;28.85;26.17;;;;;;;;;;5069822;28;20227;-54
2023/06/21 01:36:57;;;;;;;26.67;24.48;;;;;;;;;;5082351;28;20237;-56
2023/06/21 01:39:26;;;;;;;26.42;24.13;;;;;;;;;;5083624;28;20227;-55
2023/06/21 01:41:53;;;;;;;26.65;24.35;;;;;;;;;;5085810;28;20231;-54
2023/06/21 01:44:19;;;;;;;26.52;24.08;;;;;;;;;;5086617;28;20231;-53
2023/06/21 01:46:51;;;;;;;28.13;25.67;;;;;;;;;;5076544;28;20326;-55
2023/06/21 01:49:18;;;;;;;24.17;22.08;;;;;;;;;;5077893;28;20283;-54
2023/06/21 01:51:45;;;;;;;28.83;26.10;;;;;;;;;;5079093;28;20273;-54
2023/06/21 01:54:12;;;;;;;27.30;25.00;;;;;;;;;;5071928;28;20700;-53
2023/06/21 01:56:41;;;;;;;27.38;25.08;;;;;;;;;;5077399;28;20333;-58
2023/06/21 01:59:08;;;;;;;31.30;28.52;;;;;;;;;;5077706;28;20235;-55
2023/06/21 02:01:34;;;;;;;28.52;26.10;;;;;;;;;;5075809;28;20242;-57
2023/06/21 02:04:03;;;;;;;29.67;27.20;;;;;;;;;;5079516;28;20239;-54
2023/06/21 02:06:31;;;;;;;29.48;26.88;;;;;;;;;;5069211;28;20231;-54
2023/06/21 02:08:59;;;;;;;27.23;24.83;;;;;;;;;;5073050;28;20235;-57
2023/06/21 02:11:26;;;;;;;28.33;25.92;;;;;;;;;;5070506;28;20231;-54
2023/06/21 02:13:53;;;;;;;29.95;27.27;;;;;;;;;;5067827;28;20761;-55
2023/06/21 02:16:24;;;;;;;34.75;31.33;;;;;;;;;;5082725;28;20258;-55
2023/06/21 02:18:51;;;;;;;35.05;31.98;;;;;;;;;;5085636;28;20239;-54
2023/06/21 02:21:20;;;;;;;32.60;29.70;;;;;;;;;;5079119;28;20236;-55
2023/06/21 02:23:47;;;;;;;32.83;29.88;;;;;;;;;;5072273;28;20624;-54
2023/06/21 02:26:13;;;;;;;33.40;30.40;;;;;;;;;;5075317;28;20227;-53
2023/06/21 02:28:41;;;;;;;32.38;29.50;;;;;;;;;;5063043;28;20295;-54
2023/06/21 02:31:07;;;;;;;32.67;29.33;;;;;;;;;;5080549;28;20230;-53
2023/06/21 02:33:34;;;;;;;33.22;30.13;;;;;;;;;;5075917;28;20288;-53
2023/06/21 02:36:00;;;;;;;31.23;28.52;;;;;;;;;;5071614;28;20227;-53
2023/06/21 02:38:30;;;;;;;33.03;29.80;;;;;;;;;;5072550;28;20231;-52
2023/06/21 02:40:57;;;;;;;34.25;31.00;;;;;;;;;;5076992;27;20241;-51
2023/06/21 02:43:23;;;;;;;33.88;30.67;;;;;;;;;;5064260;28;20322;-53
2023/06/21 02:45:50;;;;;;;35.53;31.98;;;;;;;;;;5067427;28;20258;-51
2023/06/21 02:48:17;;;;;;;36.00;32.55;;;;;;;;;;5074401;28;20230;-52
2023/06/21 02:50:43;;;;;;;37.45;34.03;;;;;;;;;;5070504;28;20230;-56
2023/06/21 02:53:10;;;;;;;36.80;33.38;;;;;;;;;;5066950;28;20287;-56
2023/06/21 02:55:38;;;;;;;35.67;32.47;;;;;;;;;;5071003;28;20288;-57
2023/06/21 02:58:04;;;;;;;36.13;32.90;;;;;;;;;;5071114;28;20304;-57
2023/06/21 03:00:31;;;;;;;41.08;37.38;;;;;;;;;;5079740;28;20254;-56
2023/06/21 03:02:59;;;;;;;36.90;33.53;;;;;;;;;;5084701;28;20246;-56
2023/06/21 03:05:26;;;;;;;37.15;33.75;;;;;;;;;;5073616;28;20231;-59
2023/06/21 03:07:53;;;;;;;33.20;30.25;;;;;;;;;;5076948;28;20245;-57
2023/06/21 03:10:20;;;;;;;37.33;34.13;;;;;;;;;;5061502;28;20219;-56
2023/06/21 03:12:48;;;;;;;38.72;35.20;;;;;;;;;;5065071;28;20231;-54
2023/06/21 03:15:15;;;;;;;36.63;33.22;;;;;;;;;;5071520;28;20240;-54
2023/06/21 03:17:42;;;;;;;38.20;34.60;;;;;;;;;;5072674;28;20231;-54
2023/06/21 03:20:12;;;;;;;33.70;30.60;;;;;;;;;;5073938;28;20237;-54
2023/06/21 03:22:39;;;;;;;34.85;31.70;;;;;;;;;;5063001;28;20246;-53
2023/06/21 03:25:06;;;;;;;35.05;31.90;;;;;;;;;;5064394;28;20230;-54
2023/06/21 03:27:33;;;;;;;36.65;33.17;;;;;;;;;;5065527;28;20700;-52
2023/06/21 03:30:01;;;;;;;38.70;35.17;;;;;;;;;;5062637;28;20219;-53
2023/06/21 03:32:28;;;;;;;37.97;34.50;;;;;;;;;;5057381;28;20293;-53
2023/06/21 03:34:54;;;;;;;37.83;34.35;;;;;;;;;;5061186;28;20300;-52
2023/06/21 03:37:21;;;;;;;40.35;36.78;;;;;;;;;;5070396;28;20264;-52
2023/06/21 03:39:48;;;;;;;43.65;39.60;;;;;;;;;;5060573;28;20235;-52
2023/06/21 03:42:14;;;;;;;44.95;40.88;;;;;;;;;;5063644;28;20236;-52
2023/06/21 03:44:41;;;;;;;46.33;41.90;;;;;;;;;;5061054;28;20230;-51
2023/06/21 03:47:10;;;;;;;44.25;40.03;;;;;;;;;;5059989;28;20227;-51
2023/06/21 03:49:37;;;;;;;47.20;42.60;;;;;;;;;;5058284;28;20731;-52
2023/06/21 03:52:04;;;;;;;46.50;42.20;;;;;;;;;;5054849;28;20242;-51
2023/06/21 03:54:31;;;;;;;42.58;38.67;;;;;;;;;;5058896;28;20255;-51
2023/06/21 03:56:57;;;;;;;43.85;39.75;;;;;;;;;;5058123;28;20323;-52
2023/06/21 03:59:24;;;;;;;47.67;43.08;;;;;;;;;;5059240;28;20316;-52
2023/06/21 04:01:53;;;;;;;42.47;38.22;;;;;;;;;;5069543;28;20238;-50
2023/06/21 04:04:24;;;;;;;44.58;40.25;;;;;;;;;;5066057;28;20887;-52
2023/06/21 04:06:50;;;;;;;41.25;37.55;;;;;;;;;;5058336;28;20274;-51
2023/06/21 04:09:17;;;;;;;41.97;38.05;;;;;;;;;;5072255;28;20348;-51
2023/06/21 04:11:44;;;;;;;40.47;36.80;;;;;;;;;;5068981;28;20234;-51
2023/06/21 04:14:11;;;;;;;38.53;35.13;;;;;;;;;;5073103;27;20234;-51
2023/06/21 04:16:38;;;;;;;37.47;34.13;;;;;;;;;;5072941;28;20976;-51
2023/06/21 04:19:04;;;;;;;38.53;34.92;;;;;;;;;;5063268;28;20486;-51
2023/06/21 04:21:32;;;;;;;44.53;40.47;;;;;;;;;;5067538;28;20224;-51
2023/06/21 04:23:58;;;;;;;45.97;41.67;;;;;;;;;;5052276;28;20309;-51
2023/06/21 04:26:27;;;;;;;45.63;41.30;;;;;;;;;;5055238;28;20235;-51
2023/06/21 04:28:53;;;;;;;44.63;40.40;;;;;;;;;;5065628;28;20774;-51
2023/06/21 04:31:20;;;;;;;47.33;43.03;;;;;;;;;;5065621;28;20235;-51
2023/06/21 04:33:46;;;;;;;44.40;40.22;;;;;;;;;;5062943;28;20320;-52
2023/06/21 04:36:17;;;;;;;45.05;40.85;;;;;;;;;;5061257;28;20241;-51
2023/06/21 04:38:48;;;;;;;53.13;47.88;;;;;;;;;;5063849;28;20227;-50
2023/06/21 04:41:15;;;;;;;49.65;44.83;;;;;;;;;;5059076;28;20235;-51
2023/06/21 04:43:43;;;;;;;47.42;42.97;;;;;;;;;;5062173;28;20284;-52
2023/06/21 04:46:10;;;;;;;43.05;39.17;;;;;;;;;;5060301;28;20449;-52
2023/06/21 04:48:37;;;;;;;47.55;42.90;;;;;;;;;;5054372;28;20223;-52
2023/06/21 04:51:04;;;;;;;47.00;42.60;;;;;;;;;;5058087;28;20227;-51
2023/06/21 04:53:31;;;;;;;44.55;40.50;;;;;;;;;;5056715;28;20251;-51
2023/06/21 04:55:59;;;;;;;46.42;41.83;;;;;;;;;;5056531;28;20524;-51
2023/06/21 04:58:25;;;;;;;40.83;37.15;;;;;;;;;;5075002;28;20231;-51
2023/06/21 05:00:52;;;;;;;47.15;42.80;;;;;;;;;;5077004;28;20750;-51
2023/06/21 05:03:19;;;;;;;49.88;45.22;;;;;;;;;;5069032;28;20258;-52
2023/06/21 05:05:45;;;;;;;44.83;40.58;;;;;;;;;;5077906;28;20230;-51
2023/06/21 05:08:12;;;;;;;44.88;40.50;;;;;;;;;;5079457;28;20242;-51
2023/06/21 05:10:39;;;;;;;47.15;42.97;;;;;;;;;;5076562;28;20290;-53
2023/06/21 05:13:07;;;;;;;49.47;44.97;;;;;;;;;;5072250;28;20700;-51
2023/06/21 05:15:34;;;;;;;42.20;38.40;;;;;;;;;;5067748;28;20775;-51
2023/06/21 05:18:00;;;;;;;42.88;39.00;;;;;;;;;;5064119;28;20295;-51
2023/06/21 05:20:26;;;;;;;45.60;41.55;;;;;;;;;;5062513;28;20276;-53
2023/06/21 05:22:53;;;;;;;44.95;40.80;;;;;;;;;;5068591;28;20234;-55
2023/06/21 05:25:20;;;;;;;45.70;41.40;;;;;;;;;;5069603;28;20287;-52
2023/06/21 05:27:47;;;;;;;43.00;39.10;;;;;;;;;;5073895;28;20794;-51
2023/06/21 05:30:15;;;;;;;38.13;34.65;;;;;;;;;;5071210;28;20314;-52
2023/06/21 05:32:41;;;;;;;46.83;42.35;;;;;;;;;;5067526;28;20238;-53
2023/06/21 05:35:08;;;;;;;48.10;43.58;;;;;;;;;;5062392;28;20770;-51
2023/06/21 05:37:35;;;;;;;43.40;39.22;;;;;;;;;;5067260;28;20241;-53
2023/06/21 05:40:02;;;;;;;43.88;39.83;;;;;;;;;;5066817;28;20235;-53
2023/06/21 05:42:29;;;;;;;46.17;41.75;;;;;;;;;;5066073;28;20318;-51
2023/06/21 05:44:55;;;;;;;44.90;40.75;;;;;;;;;;5067967;28;20227;-53
2023/06/21 05:47:23;;;;;;;45.78;41.40;;;;;;;;;;5060211;28;20748;-53
2023/06/21 05:49:50;;;;;;;44.78;40.70;;;;;;;;;;5064548;28;20230;-52
2023/06/21 05:52:17;;;;;;;45.65;41.35;;;;;;;;;;5080914;28;20261;-51
2023/06/21 05:54:44;;;;;;;46.25;41.95;;;;;;;;;;5074273;28;20975;-51
2023/06/21 05:57:11;;;;;;;45.03;40.92;;;;;;;;;;5077683;28;20739;-52
2023/06/21 05:59:38;;;;;;;42.40;38.60;;;;;;;;;;5084684;28;20235;-51
2023/06/21 06:02:05;;;;;;;44.22;39.97;;;;;;;;;;5076195;28;20305;-51
2023/06/21 06:04:33;;;;;;;43.38;39.47;;;;;;;;;;5073144;28;20736;-51
2023/06/21 06:07:00;;;;;;;48.28;43.67;;;;;;;;;;5081948;28;20234;-53
2023/06/21 06:09:26;;;;;;;45.03;40.67;;;;;;;;;;5078913;28;20219;-52
2023/06/21 06:11:53;;;;;;;47.45;43.17;;;;;;;;;;5077861;28;20647;-52
2023/06/21 06:14:19;;;;;;;49.90;45.28;;;;;;;;;;5076107;28;20738;-54
2023/06/21 06:16:46;;;;;;;45.70;41.50;;;;;;;;;;5074281;28;20239;-52
2023/06/21 06:19:13;;;;;;;44.70;40.53;;;;;;;;;;5069037;28;20589;-52
2023/06/21 06:21:41;;;;;;;41.20;37.45;;;;;;;;;;5073790;28;20270;-53
2023/06/21 06:24:08;;;;;;;47.60;42.97;;;;;;;;;;5068491;28;20220;-52
2023/06/21 06:26:34;;;;;;;47.08;42.58;;;;;;;;;;5073187;28;20263;-52
2023/06/21 06:29:01;;;;;;;44.17;39.92;;;;;;;;;;5064676;28;20254;-52
2023/06/21 06:31:29;;;;;;;44.38;40.28;;;;;;;;;;5068832;28;20310;-53
2023/06/21 06:33:56;;;;;;;48.90;44.05;;;;;;;;;;5064987;28;20314;-52
2023/06/21 06:36:23;;;;;;;44.75;40.22;;;;;;;;;;5063805;28;20727;-56
2023/06/21 06:38:51;;;;;;;42.58;38.45;;;;;;;;;;5066567;28;20234;-53
2023/06/21 06:41:19;;;;;;;48.40;43.83;;;;;;;;;;5066295;28;20250;-54
2023/06/21 06:43:45;;;;;;;44.30;40.15;;;;;;;;;;5065571;28;20232;-53
2023/06/21 06:46:12;;;;;;;43.80;39.67;;;;;;;;;;5072439;28;20657;-53
2023/06/21 06:48:39;;;;;;;43.45;39.55;;;;;;;;;;5064561;28;20235;-53
2023/06/21 06:51:05;;;;;;;45.53;41.33;;;;;;;;;;5066036;28;20299;-54
2023/06/21 06:53:32;;;;;;;49.40;44.53;;;;;;;;;;5058613;28;20250;-52
2023/06/21 06:56:00;;;;;;;46.97;42.47;;;;;;;;;;5056276;28;20273;-54
2023/06/21 06:58:27;;;;;;;41.50;37.72;;;;;;;;;;5064327;28;20721;-53
2023/06/21 07:00:54;;;;;;;37.65;34.20;;;;;;;;;;5066904;28;20231;-53
2023/06/21 07:03:21;;;;;;;36.10;33.00;;;;;;;;;;5057568;28;20296;-56
2023/06/21 07:05:48;;;;;;;38.22;34.63;;;;;;;;;;5076811;28;20227;-54
2023/06/21 07:08:15;;;;;;;33.65;30.55;;;;;;;;;;5066931;28;20227;-53
2023/06/21 07:10:42;;;;;;;33.38;30.00;;;;;;;;;;5069634;28;20231;-53
2023/06/21 07:13:10;;;;;;;36.25;31.77;;;;;;;;;;5074223;28;20899;-54
2023/06/21 07:15:36;;;;;;;31.75;28.73;;;;;;;;;;5065812;28;20292;-53
2023/06/21 07:18:03;;;;;;;31.95;29.05;;;;;;;;;;5066162;28;20269;-53
2023/06/21 07:20:29;;;;;;;32.63;29.42;;;;;;;;;;5060055;28;20262;-53
2023/06/21 07:22:56;;;;;;;30.70;28.00;;;;;;;;;;5059893;28;20329;-53
2023/06/21 07:25:23;;;;;;;28.48;25.80;;;;;;;;;;5058917;28;20239;-53
2023/06/21 07:27:50;;;;;;;27.27;24.88;;;;;;;;;;5067532;28;20630;-54
2023/06/21 07:30:18;;;;;;;28.52;25.88;;;;;;;;;;5060825;28;20239;-53
2023/06/21 07:32:46;;;;;;;25.40;23.10;;;;;;;;;;5059799;28;20760;-53
2023/06/21 07:35:14;;;;;;;25.35;22.95;;;;;;;;;;5046588;28;20308;-54
2023/06/21 07:37:41;;;;;;;25.48;23.10;;;;;;;;;;5055008;28;20615;-53
2023/06/21 07:40:08;;;;;;;26.02;23.63;;;;;;;;;;5055986;28;20667;-53
2023/06/21 07:42:35;;;;;;;23.13;21.02;;;;;;;;;;5066777;28;20235;-53
2023/06/21 07:45:01;;;;;;;20.85;19.00;;;;;;;;;;5068078;28;20246;-54
2023/06/21 07:47:29;;;;;;;22.10;20.02;;;;;;;;;;5059830;28;21073;-54
2023/06/21 07:49:56;;;;;;;23.70;21.45;;;;;;;;;;5056192;28;20223;-53
2023/06/21 07:52:22;;;;;;;23.55;21.45;;;;;;;;;;5062328;28;20231;-52
2023/06/21 07:54:49;;;;;;;19.23;17.45;;;;;;;;;;5065409;28;20693;-52
2023/06/21 07:57:16;;;;;;;19.48;17.77;;;;;;;;;;5054116;28;20831;-54
2023/06/21 07:59:42;;;;;;;17.95;16.35;;;;;;;;;;5062453;28;21984;-53
2023/06/21 08:02:10;;;;;;;18.50;16.80;;;;;;;;;;5049328;28;20253;-54
2023/06/21 08:04:38;;;;;;;17.80;15.93;;;;;;;;;;5054602;28;20238;-53
2023/06/21 08:07:05;;;;;;;16.50;15.02;;;;;;;;;;5061377;28;20226;-54
2023/06/21 08:09:31;;;;;;;17.77;16.15;;;;;;;;;;5053371;28;20234;-54
2023/06/21 08:11:58;;;;;;;16.63;15.13;;;;;;;;;;5065558;28;20238;-53
2023/06/21 08:14:25;;;;;;;18.75;15.82;;;;;;;;;;5067831;28;20235;-54
2023/06/21 08:16:51;;;;;;;16.85;15.25;;;;;;;;;;5067629;28;20287;-53
2023/06/21 08:19:18;;;;;;;18.08;15.60;;;;;;;;;;5049983;28;20234;-54
2023/06/21 08:21:46;;;;;;;16.25;14.65;;;;;;;;;;5058829;28;20227;-54
2023/06/21 08:24:13;;;;;;;16.75;15.35;;;;;;;;;;5059841;28;20324;-55
2023/06/21 08:26:39;;;;;;;16.50;15.00;;;;;;;;;;5061108;28;20329;-53
2023/06/21 08:29:06;;;;;;;17.38;15.68;;;;;;;;;;5055470;28;20235;-53
2023/06/21 08:31:33;;;;;;;16.10;14.50;;;;;;;;;;5058886;28;20223;-54
2023/06/21 08:33:59;;;;;;;15.88;14.52;;;;;;;;;;5058811;28;20235;-54
2023/06/21 08:36:26;;;;;;;15.15;13.57;;;;;;;;;;5056444;28;20720;-54
2023/06/21 08:38:54;;;;;;;16.95;15.35;;;;;;;;;;5052688;28;20235;-58
2023/06/21 08:41:21;;;;;;;15.43;14.00;;;;;;;;;;5062100;28;20754;-55
2023/06/21 08:43:47;;;;;;;14.93;13.63;;;;;;;;;;5071164;28;20272;-55
2023/06/21 08:46:15;;;;;;;15.20;13.82;;;;;;;;;;5055924;27;20235;-54
2023/06/21 08:48:42;;;;;;;14.20;12.88;;;;;;;;;;5063529;28;20269;-54
2023/06/21 08:51:08;;;;;;;14.07;12.88;;;;;;;;;;5058032;28;20254;-54
2023/06/21 08:53:39;;;;;;;13.05;11.95;;;;;;;;;;5051651;28;20231;-54
2023/06/21 08:56:07;;;;;;;13.60;12.32;;;;;;;;;;5052047;28;20227;-56
2023/06/21 08:58:36;;;;;;;13.15;11.85;;;;;;;;;;5046872;28;20239;-54
2023/06/21 09:01:04;;;;;;;12.20;11.00;;;;;;;;;;5056913;28;20231;-55
2023/06/21 09:03:33;;;;;;;13.30;12.10;;;;;;;;;;5051475;28;20254;-54
2023/06/21 09:06:03;;;;;;;12.75;11.55;;;;;;;;;;5063980;28;20286;-60
2023/06/21 09:08:31;;;;;;;12.50;11.30;;;;;;;;;;5062392;28;20231;-54
2023/06/21 09:10:58;;;;;;;10.82;9.90;;;;;;;;;;5055320;28;20238;-54
2023/06/21 09:13:27;;;;;;;11.18;10.25;;;;;;;;;;5065208;28;20845;-54
2023/06/21 09:15:54;;;;;;;12.45;11.20;;;;;;;;;;5061411;28;20300;-54
2023/06/21 09:18:21;;;;;;;12.07;10.98;;;;;;;;;;5065535;28;20230;-54
2023/06/21 09:20:48;;;;;;;10.13;9.23;;;;;;;;;;5065314;28;20258;-55
2023/06/21 09:23:15;;;;;;;10.18;9.38;;;;;;;;;;5065906;28;20249;-54
2023/06/21 09:25:42;;;;;;;11.43;10.32;;;;;;;;;;5062993;28;20235;-55
2023/06/21 09:28:08;;;;;;;10.90;9.90;;;;;;;;;;5069866;28;20325;-55
2023/06/21 09:30:36;;;;;;;10.77;9.68;;;;;;;;;;5062339;28;20358;-55
2023/06/21 09:33:03;;;;;;;10.00;9.20;;;;;;;;;;5070990;28;20234;-55
2023/06/21 09:35:30;;;;;;;10.57;9.68;;;;;;;;;;5062553;28;20231;-54
2023/06/21 09:37:56;;;;;;;9.50;8.80;;;;;;;;;;5068621;28;20234;-54
2023/06/21 09:40:23;;;;;;;10.65;9.63;;;;;;;;;;5070768;28;20240;-56
2023/06/21 09:42:49;;;;;;;11.27;9.98;;;;;;;;;;5060916;28;20777;-54
2023/06/21 09:45:19;;;;;;;9.77;8.98;;;;;;;;;;5063650;28;20231;-55
2023/06/21 09:47:47;;;;;;;10.57;9.57;;;;;;;;;;5064914;28;20284;-55
2023/06/21 09:50:13;;;;;;;11.60;10.50;;;;;;;;;;5066890;28;20262;-54
2023/06/21 09:52:42;;;;;;;11.15;10.15;;;;;;;;;;5067306;28;20693;-55
2023/06/21 09:55:13;;;;;;;9.70;8.90;;;;;;;;;;5050914;28;20286;-55
2023/06/21 09:57:39;;;;;;;9.85;8.95;;;;;;;;;;5063734;28;20235;-55
2023/06/21 10:00:07;;;;;;;9.57;8.82;;;;;;;;;;5059387;28;20255;-54
2023/06/21 10:02:38;;;;;;;13.73;9.63;;;;;;;;;;5065400;28;20227;-55
2023/06/21 10:05:07;;;;;;;8.98;8.23;;;;;;;;;;5058636;28;20752;-54
2023/06/21 10:07:42;;;;;;;10.23;9.43;;;;;;;;;;5071114;28;20255;-54
2023/06/21 10:10:10;;;;;;;9.80;8.90;;;;;;;;;;5065976;28;20256;-54
2023/06/21 10:12:36;;;;;;;10.35;9.48;;;;;;;;;;5070796;28;20231;-54
2023/06/21 10:15:04;;;;;;;9.82;8.85;;;;;;;;;;5065635;28;20314;-54
2023/06/21 10:17:31;;;;;;;10.70;9.77;;;;;;;;;;5059690;28;20278;-53
2023/06/21 10:19:59;;;;;;;9.55;8.65;;;;;;;;;;5070793;28;20243;-54
2023/06/21 10:22:27;;;;;;;9.88;9.07;;;;;;;;;;5076958;28;20257;-54
2023/06/21 10:24:54;;;;;;;9.52;8.70;;;;;;;;;;5071563;28;20231;-56
2023/06/21 10:27:21;;;;;;;8.82;8.15;;;;;;;;;;5075710;28;20284;-56
2023/06/21 10:29:49;;;;;;;8.93;8.23;;;;;;;;;;5066576;28;20319;-54
2023/06/21 10:32:16;;;;;;;9.10;8.27;;;;;;;;;;5066514;28;20242;-54
2023/06/21 10:34:49;;;;;;;9.15;8.27;;;;;;;;;;5064637;28;20238;-54
2023/06/21 10:37:19;;;;;;;8.02;7.38;;;;;;;;;;5062299;28;20773;-56
2023/06/21 10:39:50;;;;;;;8.93;8.13;;;;;;;;;;5071404;28;20778;-54
2023/06/21 10:42:17;;;;;;;8.63;7.93;;;;;;;;;;5061055;28;20245;-55
2023/06/21 10:44:44;;;;;;;8.45;7.85;;;;;;;;;;5064305;28;20238;-55
2023/06/21 10:47:12;;;;;;;8.82;8.15;;;;;;;;;;5058348;28;20240;-54
2023/06/21 10:49:38;;;;;;;8.63;7.80;;;;;;;;;;5065029;28;20235;-55
2023/06/21 10:52:06;;;;;;;8.60;7.88;;;;;;;;;;5072849;28;20876;-56
2023/06/21 10:54:33;;;;;;;7.72;6.97;;;;;;;;;;5064298;28;20277;-56
2023/06/21 10:57:01;;;;;;;8.32;7.55;;;;;;;;;;5067895;28;20238;-54
2023/06/21 10:59:28;;;;;;;8.05;7.25;;;;;;;;;;5064679;28;20235;-55
2023/06/21 11:01:55;;;;;;;7.65;6.95;;;;;;;;;;5072161;28;20277;-54
2023/06/21 11:04:21;;;;;;;7.53;6.93;;;;;;;;;;5066992;28;20626;-54
2023/06/21 11:06:48;;;;;;;7.30;6.70;;;;;;;;;;5069001;28;20239;-54
2023/06/21 11:09:18;;;;;;;6.80;6.28;;;;;;;;;;5066717;28;20307;-55
2023/06/21 11:11:54;;;;;;;7.68;6.97;;;;;;;;;;5066622;28;20285;-55
2023/06/21 11:14:23;;;;;;;8.15;6.85;;;;;;;;;;5062605;28;20246;-55
2023/06/21 11:16:49;;;;;;;7.50;6.90;;;;;;;;;;5061032;28;20274;-54
2023/06/21 11:19:17;;;;;;;7.72;6.90;;;;;;;;;;5065050;28;20227;-54
2023/06/21 11:21:47;;;;;;;7.60;7.00;;;;;;;;;;5062810;28;20681;-54
2023/06/21 11:24:16;;;;;;;7.20;6.50;;;;;;;;;;5061305;28;20246;-56
2023/06/21 11:26:53;;;;;;;6.22;5.72;;;;;;;;;;5062723;28;20254;-56
2023/06/21 11:29:19;;;;;;;6.38;5.80;;;;;;;;;;5062674;28;20856;-54
2023/06/21 11:31:47;;;;;;;6.70;6.20;;;;;;;;;;5061553;28;20752;-55
2023/06/21 11:34:23;;;;;;;6.88;6.25;;;;;;;;;;5063911;28;20701;-55
2023/06/21 11:36:49;;;;;;;6.25;5.75;;;;;;;;;;5065343;28;20614;-54
2023/06/21 11:39:23;;;;;;;6.13;5.70;;;;;;;;;;5064256;28;20689;-53
2023/06/21 11:42:00;;;;;;;7.25;6.55;;;;;;;;;;5064080;28;20238;-55
2023/06/21 11:44:28;;;;;;;7.15;6.55;;;;;;;;;;5061916;28;20704;-54
2023/06/21 11:47:06;;;;;;;6.15;5.55;;;;;;;;;;5063188;28;20288;-56
2023/06/21 11:49:33;;;;;;;7.45;6.85;;;;;;;;;;5066012;28;20231;-56
2023/06/21 11:52:03;;;;;;;7.07;6.43;;;;;;;;;;5067970;28;20229;-56
2023/06/21 11:54:31;;;;;;;7.45;6.75;;;;;;;;;;5057737;28;20790;-55
2023/06/21 11:56:58;;;;;;;6.65;5.85;;;;;;;;;;5049791;28;20286;-55
2023/06/21 11:59:25;;;;;;;7.43;6.70;;;;;;;;;;5057326;28;20232;-56
2023/06/21 12:01:52;;;;;;;7.28;6.68;;;;;;;;;;5064929;28;20326;-55
2023/06/21 12:04:26;;;;;;;7.32;6.53;;;;;;;;;;5063081;28;20234;-55
2023/06/21 12:06:52;;;;;;;7.15;6.55;;;;;;;;;;5063483;28;20697;-55
2023/06/21 12:09:19;;;;;;;7.03;6.43;;;;;;;;;;5064915;28;20285;-56
2023/06/21 12:11:47;;;;;;;6.78;6.18;;;;;;;;;;5065448;28;20288;-56
2023/06/21 12:14:14;;;;;;;7.03;6.43;;;;;;;;;;5057496;28;20246;-56
2023/06/21 12:16:41;;;;;;;9.27;6.50;;;;;;;;;;5066708;28;20235;-56
2023/06/21 12:19:08;;;;;;;6.47;5.88;;;;;;;;;;5067998;28;20248;-55
2023/06/21 12:21:38;;;;;;;7.28;5.85;;;;;;;;;;5074219;28;20237;-55
2023/06/21 12:24:05;;;;;;;6.28;5.72;;;;;;;;;;5066406;28;20227;-56
2023/06/21 12:26:32;;;;;;;6.40;5.80;;;;;;;;;;5067449;28;20243;-56
2023/06/21 12:28:58;;;;;;;9.80;5.93;;;;;;;;;;5065778;28;20348;-55
2023/06/21 12:31:29;;;;;;;6.30;5.70;;;;;;;;;;5058361;28;20230;-55
2023/06/21 12:33:56;;;;;;;6.22;5.72;;;;;;;;;;5064881;28;20263;-57
2023/06/21 12:36:24;;;;;;;5.70;5.30;;;;;;;;;;5064221;28;20658;-54
2023/06/21 12:38:52;;;;;;;7.57;5.88;;;;;;;;;;5062795;28;20318;-55
2023/06/21 12:41:21;;;;;;;6.18;5.63;;;;;;;;;;5059756;28;20235;-56
2023/06/21 12:43:49;;;;;;;5.30;4.90;;;;;;;;;;5058849;28;20235;-56
2023/06/21 12:46:15;;;;;;;5.70;5.20;;;;;;;;;;5059815;28;20241;-57
2023/06/21 12:48:46;;;;;;;5.60;5.10;;;;;;;;;;5059519;28;20238;-55
2023/06/21 12:51:19;;;;;;;5.68;5.28;;;;;;;;;;5066571;28;20584;-56
2023/06/21 12:53:46;;;;;;;5.40;4.95;;;;;;;;;;5063619;28;20238;-55
2023/06/21 12:56:14;;;;;;;6.75;6.10;;;;;;;;;;5057801;28;20436;-56
2023/06/21 12:58:41;;;;;;;7.00;6.00;;;;;;;;;;5055922;28;20231;-56
2023/06/21 13:01:07;;;;;;;6.60;5.38;;;;;;;;;;5061270;28;20720;-56
2023/06/21 13:03:35;;;;;;;5.90;5.50;;;;;;;;;;5060158;28;20231;-55
2023/06/21 13:06:02;;;;;;;5.75;5.20;;;;;;;;;;5058488;28;20238;-56
2023/06/21 13:08:29;;;;;;;5.75;5.25;;;;;;;;;;5066965;28;20315;-55
2023/06/21 13:10:56;;;;;;;5.15;4.63;;;;;;;;;;5062312;28;20236;-56
2023/06/21 13:13:25;;;;;;;6.85;5.88;;;;;;;;;;5064685;28;20238;-55
2023/06/21 13:15:52;;;;;;;5.63;5.18;;;;;;;;;;5057955;28;20610;-55
2023/06/21 13:18:19;;;;;;;5.90;5.40;;;;;;;;;;5063848;28;20823;-55
2023/06/21 13:20:45;;;;;;;5.93;5.32;;;;;;;;;;5065328;28;20258;-55
2023/06/21 13:23:12;;;;;;;5.30;4.90;;;;;;;;;;5068745;28;20235;-56
2023/06/21 13:25:39;;;;;;;5.35;4.85;;;;;;;;;;5072169;28;20235;-56
2023/06/21 13:28:05;;;;;;;6.35;5.40;;;;;;;;;;5063212;28;21300;-55
2023/06/21 13:30:33;;;;;;;6.15;5.55;;;;;;;;;;5059437;28;20656;-55
2023/06/21 13:33:00;;;;;;;6.57;5.10;;;;;;;;;;5063222;28;20230;-55
2023/06/21 13:35:26;;;;;;;8.43;5.25;;;;;;;;;;5061847;28;20348;-56
2023/06/21 13:37:53;;;;;;;4.88;4.47;;;;;;;;;;5062701;28;20235;-56
2023/06/21 13:40:19;;;;;;;5.30;4.78;;;;;;;;;;5055695;28;20223;-54
2023/06/21 13:42:46;;;;;;;5.60;5.10;;;;;;;;;;5060869;28;20243;-54
2023/06/21 13:45:13;;;;;;;5.28;4.85;;;;;;;;;;5059007;28;20591;-55
2023/06/21 13:47:41;;;;;;;5.70;5.20;;;;;;;;;;5067089;28;20241;-56
2023/06/21 13:50:08;;;;;;;5.53;5.13;;;;;;;;;;5060917;28;20230;-55
2023/06/21 13:52:35;;;;;;;5.22;4.72;;;;;;;;;;5059721;28;20258;-55
2023/06/21 13:55:01;;;;;;;5.53;5.03;;;;;;;;;;5063020;28;20256;-55
2023/06/21 13:57:28;;;;;;;6.05;5.45;;;;;;;;;;5065484;28;20341;-56
2023/06/21 13:59:55;;;;;;;6.72;6.00;;;;;;;;;;5057577;28;20293;-59
2023/06/21 14:02:22;;;;;;;6.32;5.57;;;;;;;;;;5060420;28;20285;-54
2023/06/21 14:04:50;;;;;;;6.00;5.60;;;;;;;;;;5035061;28;20228;-56
2023/06/21 14:07:17;;;;;;;5.75;5.25;;;;;;;;;;5051345;28;20227;-56
2023/06/21 14:09:44;;;;;;;5.70;5.20;;;;;;;;;;5060321;28;20316;-55
2023/06/21 14:12:11;;;;;;;5.65;5.25;;;;;;;;;;5056776;28;20236;-55
2023/06/21 14:14:38;;;;;;;6.30;5.70;;;;;;;;;;5061982;28;20232;-55
2023/06/21 14:17:05;;;;;;;5.70;5.20;;;;;;;;;;5074239;28;20252;-55
2023/06/21 14:19:31;;;;;;;6.93;6.43;;;;;;;;;;5068779;28;20232;-59
2023/06/21 14:21:59;;;;;;;6.47;5.88;;;;;;;;;;5066148;28;20263;-55
2023/06/21 14:24:25;;;;;;;6.18;5.60;;;;;;;;;;5075144;28;20219;-58
2023/06/21 14:26:52;;;;;;;6.07;5.57;;;;;;;;;;5070998;28;20258;-55